Time;durP1;ratioP1;P1;durP2;ratioP2;P2;SDS_P1;SDS_P2;PMS_P1;PMS_P2;Temp;Humidity;BMP_temperature;BMP_pressure;BME280_temperature;BME280_humidity;BME280_pressure;Samples;Min_cycle;Max_cycle;Signal;HPM_P1;HPM_P2
2023/08/23 00:00:45;;;;;;;7.10;2.70;;;19.80;99.30;;;;;;5058711;28;20324;-68
2023/08/23 00:03:11;;;;;;;4.63;2.28;;;19.80;99.20;;;;;;5052058;28;20380;-68
2023/08/23 00:05:36;;;;;;;5.03;2.63;;;19.80;99.30;;;;;;5049957;28;20040;-68
2023/08/23 00:08:02;;;;;;;6.43;2.85;;;19.80;99.20;;;;;;5047052;28;20651;-68
2023/08/23 00:10:27;;;;;;;8.00;2.40;;;20.00;99.00;;;;;;5051693;28;20033;-68
2023/08/23 00:12:56;;;;;;;6.28;2.97;;;19.90;99.10;;;;;;5052766;28;20017;-68
2023/08/23 00:15:21;;;;;;;9.43;3.00;;;20.00;99.00;;;;;;5049855;28;20480;-68
2023/08/23 00:17:47;;;;;;;9.07;3.10;;;19.90;98.90;;;;;;5049998;28;20553;-68
2023/08/23 00:20:13;;;;;;;6.82;2.80;;;19.80;98.90;;;;;;5052611;28;20078;-68
2023/08/23 00:22:38;;;;;;;5.38;2.53;;;19.60;99.10;;;;;;5055264;28;20029;-68
2023/08/23 00:25:04;;;;;;;11.32;2.83;;;19.60;99.10;;;;;;5050476;28;20498;-68
2023/08/23 00:27:29;;;;;;;9.45;3.45;;;19.50;99.10;;;;;;5050948;28;20029;-68
2023/08/23 00:29:55;;;;;;;5.97;2.60;;;19.50;99.10;;;;;;5047509;28;20016;-68
2023/08/23 00:32:20;;;;;;;6.70;3.08;;;19.40;99.50;;;;;;5050850;28;20036;-68
2023/08/23 00:34:46;;;;;;;9.27;3.95;;;19.50;99.60;;;;;;5050929;28;20506;-68
2023/08/23 00:37:11;;;;;;;10.15;3.63;;;19.50;99.60;;;;;;5048561;28;20124;-68
2023/08/23 00:39:37;;;;;;;7.80;2.72;;;19.50;99.50;;;;;;5050936;28;20483;-68
2023/08/23 00:42:03;;;;;;;5.13;3.15;;;19.60;99.40;;;;;;5050155;28;20476;-68
2023/08/23 00:44:28;;;;;;;11.95;3.30;;;19.60;99.30;;;;;;5050723;28;20021;-68
2023/08/23 00:46:54;;;;;;;6.18;3.13;;;19.50;99.50;;;;;;5049490;28;20419;-68
2023/08/23 00:49:21;;;;;;;9.02;3.53;;;19.40;99.60;;;;;;5050393;28;20522;-68
2023/08/23 00:51:48;;;;;;;7.45;3.03;;;19.50;99.50;;;;;;5054432;28;20467;-68
2023/08/23 00:54:13;;;;;;;13.73;4.30;;;19.50;99.40;;;;;;5052375;28;20029;-68
2023/08/23 00:56:39;;;;;;;8.00;3.35;;;19.50;99.30;;;;;;5048519;28;20028;-68
2023/08/23 00:59:07;;;;;;;9.68;3.83;;;19.50;99.40;;;;;;5051086;28;20547;-68
2023/08/23 01:01:33;;;;;;;9.27;3.78;;;19.40;99.60;;;;;;5050700;28;20028;-68
2023/08/23 01:03:58;;;;;;;7.03;3.83;;;19.40;99.60;;;;;;5049832;28;20025;-68
2023/08/23 01:06:38;;;;;;;8.23;3.78;;;19.40;99.60;;;;;;5045988;28;20033;-68
2023/08/23 01:09:25;;;;;;;8.13;3.13;;;19.30;99.60;;;;;;5050370;28;20115;-68
2023/08/23 01:12:15;;;;;;;12.73;3.88;;;19.40;99.90;;;;;;5046277;28;20024;-68
2023/08/23 01:14:46;;;;;;;7.38;3.45;;;19.30;99.90;;;;;;5045821;28;20475;-68
2023/08/23 01:17:14;;;;;;;4.97;2.55;;;19.30;99.80;;;;;;5055715;28;20021;-68
2023/08/23 01:19:46;;;;;;;3.63;2.92;;;19.30;99.80;;;;;;5050841;28;20025;-68
2023/08/23 01:22:20;;;;;;;5.85;3.15;;;19.30;99.70;;;;;;5050762;28;20055;-68
2023/08/23 01:24:47;;;;;;;6.28;2.95;;;19.30;99.80;;;;;;5050916;28;20033;-68
2023/08/23 01:27:12;;;;;;;12.80;2.97;;;19.30;99.60;;;;;;5045358;28;20563;-68
2023/08/23 01:29:38;;;;;;;8.15;2.88;;;19.20;99.80;;;;;;5047858;28;20029;-68
2023/08/23 01:32:34;;;;;;;6.65;2.95;;;19.20;99.80;;;;;;5045180;28;20033;-68
2023/08/23 01:35:16;;;;;;;7.05;2.95;;;19.30;99.80;;;;;;5043537;28;20423;-68
2023/08/23 01:37:45;;;;;;;10.23;3.42;;;19.30;99.80;;;;;;5049164;28;20479;-68
2023/08/23 01:40:11;;;;;;;8.63;3.95;;;19.30;99.60;;;;;;5052728;28;20471;-68
2023/08/23 01:42:39;;;;;;;13.70;4.13;;;19.10;99.70;;;;;;5051786;28;20021;-68
2023/08/23 01:45:05;;;;;;;10.13;4.53;;;19.00;99.80;;;;;;5051507;28;20402;-68
2023/08/23 01:47:31;;;;;;;7.90;4.18;;;18.90;99.90;;;;;;5051283;28;20025;-68
2023/08/23 01:49:56;;;;;;;8.80;4.68;;;18.90;99.90;;;;;;5049726;28;20021;-68
2023/08/23 01:52:22;;;;;;;8.48;3.65;;;18.90;99.90;;;;;;5049601;28;20028;-68
2023/08/23 01:54:47;;;;;;;9.45;4.38;;;18.90;99.90;;;;;;5048728;28;20032;-68
2023/08/23 01:57:13;;;;;;;6.70;3.70;;;18.90;99.90;;;;;;5051707;28;20475;-68
2023/08/23 01:59:38;;;;;;;8.30;3.85;;;18.90;99.90;;;;;;5049298;28;20032;-68
2023/08/23 02:02:04;;;;;;;11.82;4.43;;;18.90;99.90;;;;;;5048012;28;20078;-68
2023/08/23 02:04:30;;;;;;;7.05;3.58;;;18.90;99.90;;;;;;5050002;28;20451;-68
2023/08/23 02:06:55;;;;;;;8.25;4.43;;;18.90;99.90;;;;;;5050968;28;20028;-68
2023/08/23 02:09:21;;;;;;;10.90;4.07;;;18.90;99.90;;;;;;5048939;28;20025;-68
2023/08/23 02:11:46;;;;;;;10.68;3.92;;;18.80;99.90;;;;;;5050558;28;20245;-68
2023/08/23 02:14:12;;;;;;;6.97;3.28;;;18.80;99.90;;;;;;5051618;28;20048;-68
2023/08/23 02:16:37;;;;;;;7.32;3.35;;;18.80;99.90;;;;;;5055182;28;20021;-68
2023/08/23 02:19:03;;;;;;;8.63;3.55;;;18.90;99.90;;;;;;5050664;28;20067;-68
2023/08/23 02:21:29;;;;;;;6.97;3.60;;;18.80;99.90;;;;;;5050699;28;20021;-68
2023/08/23 02:23:55;;;;;;;7.45;3.10;;;18.80;99.90;;;;;;5061272;28;20495;-68
2023/08/23 02:26:20;;;;;;;6.15;3.78;;;18.80;99.90;;;;;;5046047;28;20036;-68
2023/08/23 02:28:46;;;;;;;5.80;3.28;;;18.80;99.90;;;;;;5052682;28;20029;-68
2023/08/23 02:31:11;;;;;;;5.15;3.38;;;18.80;99.90;;;;;;5047522;28;20471;-68
2023/08/23 02:33:37;;;;;;;4.28;2.88;;;18.80;99.90;;;;;;5049202;28;20169;-68
2023/08/23 02:36:03;;;;;;;9.57;3.10;;;18.80;99.90;;;;;;5051125;28;20028;-68
2023/08/23 02:38:28;;;;;;;5.20;2.83;;;18.70;99.90;;;;;;5050488;28;20136;-68
2023/08/23 02:40:57;;;;;;;6.05;3.17;;;18.70;99.90;;;;;;5054962;28;20021;-68
2023/08/23 02:43:22;;;;;;;8.63;3.03;;;18.70;99.90;;;;;;5051774;28;20451;-68
2023/08/23 02:45:48;;;;;;;9.60;3.13;;;18.60;99.90;;;;;;5055342;28;20056;-68
2023/08/23 02:48:14;;;;;;;5.65;3.42;;;18.50;99.90;;;;;;5056148;28;20063;-68
2023/08/23 02:50:40;;;;;;;4.85;2.60;;;18.60;99.90;;;;;;5053625;28;20121;-68
2023/08/23 02:53:05;;;;;;;3.63;2.72;;;18.40;99.90;;;;;;5057437;28;20040;-68
2023/08/23 02:55:37;;;;;;;11.73;3.05;;;18.50;99.90;;;;;;5055695;28;20071;-68
2023/08/23 02:58:03;;;;;;;16.80;3.60;;;18.50;99.90;;;;;;5057078;28;20079;-68
2023/08/23 03:00:29;;;;;;;3.95;2.55;;;18.50;99.90;;;;;;5034456;28;20408;-68
2023/08/23 03:02:55;;;;;;;6.43;3.15;;;18.50;99.90;;;;;;5052697;28;20025;-68
2023/08/23 03:05:20;;;;;;;7.57;4.07;;;18.60;99.90;;;;;;5051208;28;20149;-68
2023/08/23 03:07:46;;;;;;;4.10;3.05;;;18.60;99.90;;;;;;5051077;28;20082;-68
2023/08/23 03:10:12;;;;;;;12.18;2.78;;;18.50;99.90;;;;;;5054202;28;20032;-68
2023/08/23 03:12:37;;;;;;;5.70;3.10;;;18.60;99.90;;;;;;5053981;28;20064;-68
2023/08/23 03:15:03;;;;;;;9.27;3.70;;;18.60;99.90;;;;;;5055197;28;20024;-68
2023/08/23 03:17:29;;;;;;;5.05;3.58;;;18.50;99.90;;;;;;5060859;28;20029;-68
2023/08/23 03:19:56;;;;;;;4.45;2.78;;;18.50;99.90;;;;;;5053075;28;20024;-68
2023/08/23 03:22:21;;;;;;;7.57;3.15;;;18.40;99.90;;;;;;5054504;28;20119;-68
2023/08/23 03:24:47;;;;;;;11.43;3.33;;;18.40;99.90;;;;;;5057008;28;20116;-68
2023/08/23 03:27:12;;;;;;;7.53;4.20;;;18.40;99.90;;;;;;5054093;28;20025;-68
2023/08/23 03:29:38;;;;;;;9.68;3.28;;;18.30;99.90;;;;;;5051194;28;20387;-68
2023/08/23 03:32:04;;;;;;;4.57;3.28;;;18.30;99.90;;;;;;5052465;28;20024;-68
2023/08/23 03:34:29;;;;;;;6.45;3.42;;;18.20;99.90;;;;;;5055714;28;20017;-68
2023/08/23 03:36:55;;;;;;;6.82;3.03;;;18.20;99.90;;;;;;5054269;28;20029;-68
2023/08/23 03:39:20;;;;;;;5.07;3.15;;;18.10;99.90;;;;;;5051083;28;20025;-68
2023/08/23 03:41:47;;;;;;;9.52;3.13;;;18.20;99.90;;;;;;5051318;28;20052;-68
2023/08/23 03:44:12;;;;;;;7.70;2.97;;;18.30;99.90;;;;;;5052076;28;20029;-67
2023/08/23 03:46:38;;;;;;;5.47;4.80;;;18.30;99.90;;;;;;5056176;28;20036;-67
2023/08/23 03:49:03;;;;;;;6.40;3.63;;;18.10;99.90;;;;;;5052586;28;20029;-68
2023/08/23 03:51:29;;;;;;;9.63;4.22;;;18.00;99.90;;;;;;5051219;28;20026;-68
2023/08/23 03:53:54;;;;;;;8.05;3.55;;;17.70;99.90;;;;;;5055326;28;20487;-67
2023/08/23 03:56:20;;;;;;;6.07;3.45;;;17.60;99.90;;;;;;5051355;28;20036;-67
2023/08/23 03:58:46;;;;;;;6.68;3.40;;;17.50;99.90;;;;;;5051222;28;20029;-68
2023/08/23 04:01:11;;;;;;;7.43;3.95;;;17.60;99.90;;;;;;5059098;28;20123;-68
2023/08/23 04:03:37;;;;;;;11.00;3.65;;;17.70;99.90;;;;;;5050677;28;20044;-67
2023/08/23 04:06:02;;;;;;;10.35;3.33;;;17.60;99.90;;;;;;5052615;28;20032;-67
2023/08/23 04:08:28;;;;;;;5.40;3.90;;;17.70;99.90;;;;;;5045710;28;20037;-67
2023/08/23 04:10:54;;;;;;;6.93;3.33;;;17.70;99.90;;;;;;5047878;28;20025;-67
2023/08/23 04:13:19;;;;;;;5.00;3.10;;;17.70;99.90;;;;;;5057743;28;20518;-67
2023/08/23 04:15:45;;;;;;;9.48;4.40;;;17.70;99.90;;;;;;5056555;28;20048;-68
2023/08/23 04:18:11;;;;;;;9.88;4.53;;;17.70;99.90;;;;;;5053179;28;20021;-68
2023/08/23 04:20:38;;;;;;;13.77;3.70;;;17.60;99.90;;;;;;5059028;28;20024;-68
2023/08/23 04:23:04;;;;;;;6.82;3.35;;;17.50;99.90;;;;;;5057383;28;20397;-68
2023/08/23 04:25:30;;;;;;;8.90;3.88;;;17.50;99.90;;;;;;5049100;28;20029;-68
2023/08/23 04:27:55;;;;;;;9.48;3.70;;;17.50;99.90;;;;;;5055044;28;20025;-67
2023/08/23 04:30:21;;;;;;;12.50;4.10;;;17.50;99.90;;;;;;5049934;28;20039;-68
2023/08/23 04:32:46;;;;;;;4.90;3.97;;;17.50;99.90;;;;;;5053207;28;20407;-69
2023/08/23 04:35:12;;;;;;;8.75;4.22;;;17.70;99.90;;;;;;5050009;28;20029;-68
2023/08/23 04:37:37;;;;;;;11.73;4.20;;;17.80;99.90;;;;;;5060163;28;20028;-69
2023/08/23 04:40:04;;;;;;;9.00;5.70;;;18.00;99.90;;;;;;5051504;28;20526;-68
2023/08/23 04:42:34;;;;;;;13.00;6.13;;;18.10;99.90;;;;;;5052690;28;20047;-68
2023/08/23 04:45:00;;;;;;;13.60;8.23;;;18.20;99.90;;;;;;5054671;28;20029;-68
2023/08/23 04:47:27;;;;;;;14.35;10.55;;;18.30;99.90;;;;;;5054907;28;20040;-68
2023/08/23 04:49:52;;;;;;;23.25;11.65;;;18.50;99.90;;;;;;5044044;28;20061;-68
2023/08/23 04:52:18;;;;;;;16.25;11.95;;;18.60;99.90;;;;;;5052494;28;20448;-68
2023/08/23 04:54:44;;;;;;;14.25;9.25;;;18.70;99.90;;;;;;5050616;28;20028;-68
2023/08/23 04:57:09;;;;;;;13.65;7.53;;;18.80;99.90;;;;;;5054054;28;20276;-68
2023/08/23 04:59:35;;;;;;;10.40;7.63;;;19.00;99.90;;;;;;5050259;28;20296;-68
2023/08/23 05:02:01;;;;;;;9.85;7.20;;;19.10;99.90;;;;;;5049724;28;20488;-68
2023/08/23 05:04:26;;;;;;;12.98;6.15;;;19.20;99.90;;;;;;5048067;28;20084;-68
2023/08/23 05:06:52;;;;;;;11.48;6.05;;;19.30;99.90;;;;;;5051397;28;20024;-68
2023/08/23 05:09:17;;;;;;;12.30;7.07;;;19.50;99.90;;;;;;5050965;28;20017;-68
2023/08/23 05:11:43;;;;;;;8.68;6.47;;;19.60;99.90;;;;;;5052751;28;20033;-68
2023/08/23 05:14:08;;;;;;;8.60;6.18;;;19.90;99.90;;;;;;5050868;28;20435;-68
2023/08/23 05:16:34;;;;;;;9.77;6.10;;;20.10;99.90;;;;;;5049436;28;20021;-68
2023/08/23 05:18:59;;;;;;;7.10;4.85;;;20.30;99.90;;;;;;5043841;28;20025;-68
2023/08/23 05:21:25;;;;;;;12.18;5.32;;;20.40;99.80;;;;;;5049992;28;20036;-68
2023/08/23 05:23:50;;;;;;;9.10;5.78;;;20.50;99.50;;;;;;5050740;28;20047;-70
2023/08/23 05:26:16;;;;;;;10.23;6.05;;;20.50;99.40;;;;;;5049092;28;20025;-70
2023/08/23 05:28:42;;;;;;;9.45;6.97;;;20.60;99.20;;;;;;5050749;28;20025;-70
2023/08/23 05:31:08;;;;;;;11.18;6.43;;;20.70;99.00;;;;;;5048248;28;20624;-70
2023/08/23 05:33:33;;;;;;;14.27;8.85;;;20.80;98.70;;;;;;5047526;28;20423;-70
2023/08/23 05:35:59;;;;;;;6.90;5.93;;;20.60;98.80;;;;;;5049471;28;20017;-70
2023/08/23 05:38:24;;;;;;;17.50;7.25;;;20.30;98.80;;;;;;5088115;23;20048;-62
2023/08/23 05:40:53;;;;;;;15.95;10.07;;;20.20;99.00;;;;;;5088555;28;20066;-62
2023/08/23 05:43:19;;;;;;;13.48;9.15;;;20.00;99.30;;;;;;5089481;28;20513;-62
2023/08/23 05:45:44;;;;;;;11.63;6.88;;;19.80;99.50;;;;;;5086863;22;20024;-60
2023/08/23 05:48:10;;;;;;;14.20;9.30;;;19.60;99.70;;;;;;5030507;28;20037;-60
2023/08/23 05:50:36;;;;;;;14.05;8.02;;;19.60;99.80;;;;;;5042727;28;20033;-59
2023/08/23 05:53:04;;;;;;;19.17;7.95;;;19.60;99.90;;;;;;5030063;28;20152;-60
2023/08/23 05:55:29;;;;;;;9.00;7.47;;;19.60;99.90;;;;;;5012075;28;20112;-60
2023/08/23 05:57:55;;;;;;;8.60;7.18;;;19.60;99.90;;;;;;5009773;28;20153;-62
2023/08/23 06:00:21;;;;;;;12.82;6.57;;;19.70;99.90;;;;;;5005690;28;20061;-62
2023/08/23 06:02:46;;;;;;;12.77;8.00;;;19.70;99.90;;;;;;5017898;28;20485;-62
2023/08/23 06:05:13;;;;;;;14.07;10.00;;;19.70;99.90;;;;;;5011249;28;20045;-63
2023/08/23 06:07:39;;;;;;;14.95;7.75;;;19.80;99.90;;;;;;5010896;28;20037;-61
2023/08/23 06:10:06;;;;;;;11.25;7.15;;;19.70;99.90;;;;;;5015396;28;20018;-60
2023/08/23 06:12:31;;;;;;;8.15;6.20;;;19.80;99.90;;;;;;5000000;28;20082;-59
2023/08/23 06:14:57;;;;;;;16.10;8.43;;;19.90;99.90;;;;;;5005331;28;20103;-62
2023/08/23 06:17:25;;;;;;;8.65;6.93;;;19.90;99.90;;;;;;5006994;28;20516;-59
2023/08/23 06:19:51;;;;;;;15.60;8.23;;;20.00;99.90;;;;;;5000053;28;20757;-62
2023/08/23 06:22:17;;;;;;;9.73;8.00;;;20.00;99.90;;;;;;5009793;28;20044;-62
2023/08/23 06:24:42;;;;;;;9.40;6.40;;;20.10;99.90;;;;;;5012123;28;20033;-62
2023/08/23 06:27:08;;;;;;;9.55;6.70;;;20.00;99.90;;;;;;5016047;28;20400;-60
2023/08/23 06:29:34;;;;;;;12.40;8.13;;;20.00;99.90;;;;;;5021987;28;20405;-62
2023/08/23 06:31:59;;;;;;;9.80;8.30;;;20.10;99.90;;;;;;5014986;28;20032;-62
2023/08/23 06:34:25;;;;;;;12.90;7.38;;;20.10;99.90;;;;;;5008082;28;20481;-57
2023/08/23 06:36:50;;;;;;;10.40;6.30;;;20.10;99.90;;;;;;5012396;28;20484;-60
2023/08/23 06:39:17;;;;;;;12.25;6.65;;;20.20;99.90;;;;;;5019567;28;20033;-60
2023/08/23 06:41:42;;;;;;;11.25;7.15;;;20.30;99.80;;;;;;5016624;28;20443;-60
2023/08/23 06:44:08;;;;;;;11.88;6.85;;;20.40;99.60;;;;;;5008628;28;20026;-60
2023/08/23 06:46:34;;;;;;;11.88;7.05;;;20.40;99.60;;;;;;5011325;28;20026;-60
2023/08/23 06:48:59;;;;;;;12.25;7.60;;;20.40;99.70;;;;;;5001267;28;20473;-60
2023/08/23 06:51:27;;;;;;;11.63;7.88;;;20.30;99.80;;;;;;5006095;28;20030;-57
2023/08/23 06:53:53;;;;;;;10.27;7.78;;;20.40;99.80;;;;;;5007929;28;20026;-60
2023/08/23 06:56:18;;;;;;;11.93;6.82;;;20.30;99.90;;;;;;5017115;28;20492;-61
2023/08/23 06:58:44;;;;;;;10.32;6.60;;;20.20;99.90;;;;;;5003125;28;20030;-57
2023/08/23 07:01:14;;;;;;;9.55;8.25;;;20.20;99.90;;;;;;4997837;28;20029;-58
2023/08/23 07:03:41;;;;;;;13.43;8.50;;;20.20;99.90;;;;;;5017629;28;20033;-60
2023/08/23 07:06:06;;;;;;;10.15;7.35;;;20.10;99.90;;;;;;5005167;28;20486;-60
2023/08/23 07:08:32;;;;;;;17.67;7.80;;;20.10;99.90;;;;;;4996781;28;20089;-60
2023/08/23 07:10:57;;;;;;;14.05;8.43;;;20.20;99.90;;;;;;5002489;28;20395;-60
2023/08/23 07:13:23;;;;;;;12.32;8.38;;;20.40;99.90;;;;;;5007815;28;20087;-59
2023/08/23 07:15:49;;;;;;;10.65;8.07;;;20.50;99.90;;;;;;5007023;28;20026;-60
2023/08/23 07:18:14;;;;;;;13.10;7.90;;;20.60;99.90;;;;;;5005104;28;20022;-59
2023/08/23 07:20:40;;;;;;;15.20;8.23;;;20.70;99.90;;;;;;5007533;28;20551;-60
2023/08/23 07:23:06;;;;;;;17.48;8.48;;;20.90;99.90;;;;;;5008739;28;20030;-57
2023/08/23 07:25:31;;;;;;;10.43;8.13;;;21.10;99.60;;;;;;5003602;28;20389;-60
2023/08/23 07:27:57;;;;;;;11.48;6.82;;;21.30;99.20;;;;;;5011118;28;20081;-60
2023/08/23 07:30:22;;;;;;;16.13;8.00;;;21.40;99.10;;;;;;5010853;28;20048;-58
2023/08/23 07:32:48;;;;;;;12.82;7.97;;;21.50;98.90;;;;;;5017756;28;20389;-61
2023/08/23 07:35:14;;;;;;;10.63;7.15;;;21.60;98.90;;;;;;5017123;28;20481;-61
2023/08/23 07:37:39;;;;;;;10.77;8.25;;;21.70;98.80;;;;;;5011790;28;20483;-58
2023/08/23 07:40:06;;;;;;;15.93;8.10;;;21.80;98.70;;;;;;5005181;28;20022;-60
2023/08/23 07:42:32;;;;;;;13.13;8.30;;;21.80;98.10;;;;;;5017215;28;20072;-59
2023/08/23 07:44:57;;;;;;;13.35;8.35;;;21.70;98.40;;;;;;5017747;28;20370;-59
2023/08/23 07:47:23;;;;;;;15.55;7.90;;;21.60;98.50;;;;;;5006909;28;20034;-60
2023/08/23 07:49:49;;;;;;;12.93;7.95;;;21.60;98.40;;;;;;5016540;28;20029;-62
2023/08/23 07:52:15;;;;;;;9.65;6.45;;;21.70;98.80;;;;;;5000242;28;20025;-59
2023/08/23 07:54:40;;;;;;;11.38;6.82;;;21.70;98.40;;;;;;5006791;28;20029;-59
2023/08/23 07:57:06;;;;;;;15.45;7.80;;;21.90;98.60;;;;;;5007711;28;20030;-61
2023/08/23 07:59:31;;;;;;;14.20;7.85;;;22.10;98.20;;;;;;5010198;28;20022;-60
2023/08/23 08:01:57;;;;;;;12.85;6.65;;;22.10;97.70;;;;;;5008584;28;20041;-60
2023/08/23 08:04:22;;;;;;;9.93;5.72;;;22.00;97.80;;;;;;5018227;28;20030;-61
2023/08/23 08:06:48;;;;;;;6.63;4.38;;;22.00;97.90;;;;;;5005686;28;20032;-59
2023/08/23 08:09:13;;;;;;;10.68;6.50;;;22.00;98.00;;;;;;5007272;28;20021;-62
2023/08/23 08:11:39;;;;;;;11.13;6.05;;;22.00;97.90;;;;;;5008010;28;20084;-60
2023/08/23 08:14:04;;;;;;;8.75;7.32;;;22.00;97.90;;;;;;5010444;28;20109;-61
2023/08/23 08:16:30;;;;;;;9.40;6.03;;;22.10;97.90;;;;;;5015364;28;20488;-59
2023/08/23 08:18:55;;;;;;;11.52;6.28;;;22.20;97.90;;;;;;5009716;28;20018;-62
2023/08/23 08:21:21;;;;;;;8.32;5.28;;;22.20;97.70;;;;;;5017403;28;20036;-63
2023/08/23 08:23:47;;;;;;;21.17;8.05;;;22.20;97.80;;;;;;5010569;28;20040;-61
2023/08/23 08:26:13;;;;;;;14.30;7.03;;;22.20;97.70;;;;;;4991632;28;20066;-61
2023/08/23 08:28:42;;;;;;;10.25;6.68;;;22.30;97.70;;;;;;5010016;28;20046;-61
2023/08/23 08:31:09;;;;;;;13.23;7.88;;;22.30;97.60;;;;;;5010980;28;20366;-62
2023/08/23 08:33:34;;;;;;;13.75;8.32;;;22.20;97.40;;;;;;5012115;28;20263;-60
2023/08/23 08:36:00;;;;;;;12.00;6.60;;;22.20;97.50;;;;;;5018020;28;20036;-61
2023/08/23 08:38:25;;;;;;;14.02;7.82;;;22.20;97.60;;;;;;5012170;28;20441;-62
2023/08/23 08:40:51;;;;;;;14.75;7.43;;;22.50;97.30;;;;;;5011975;28;20088;-59
2023/08/23 08:43:18;;;;;;;11.55;5.85;;;22.80;97.10;;;;;;5028238;28;20029;-62
2023/08/23 08:45:44;;;;;;;10.45;5.82;;;23.10;96.70;;;;;;5009992;28;20495;-58
2023/08/23 08:48:09;;;;;;;12.75;6.38;;;23.20;96.10;;;;;;5009830;28;20038;-59
2023/08/23 08:50:36;;;;;;;12.93;6.03;;;23.10;95.80;;;;;;5021096;28;20117;-61
2023/08/23 08:53:08;;;;;;;8.90;5.47;;;23.00;95.80;;;;;;5003918;28;20298;-60
2023/08/23 08:55:35;;;;;;;9.18;5.45;;;23.00;96.00;;;;;;5008919;28;20072;-59
2023/08/23 08:58:02;;;;;;;10.45;5.38;;;23.10;96.30;;;;;;4999824;28;20034;-63
2023/08/23 09:00:28;;;;;;;12.85;5.95;;;23.20;96.20;;;;;;5008643;28;20087;-62
2023/08/23 09:02:54;;;;;;;7.00;5.32;;;23.30;95.80;;;;;;5016499;28;20477;-61
2023/08/23 09:05:21;;;;;;;8.95;5.22;;;23.30;95.80;;;;;;5021354;28;20022;-60
2023/08/23 09:07:46;;;;;;;9.70;4.90;;;23.30;95.70;;;;;;5008990;28;20030;-62
2023/08/23 09:10:13;;;;;;;9.05;5.18;;;23.40;95.80;;;;;;5010477;28;20029;-61
2023/08/23 09:12:39;;;;;;;11.63;4.78;;;23.50;95.60;;;;;;5013240;28;20282;-61
2023/08/23 09:15:05;;;;;;;11.07;4.97;;;23.50;95.10;;;;;;5002908;28;20029;-61
2023/08/23 09:17:33;;;;;;;9.95;5.00;;;23.50;94.80;;;;;;5006356;28;20573;-62
2023/08/23 09:19:59;;;;;;;9.30;4.03;;;23.50;95.00;;;;;;5006946;28;20583;-62
2023/08/23 09:22:25;;;;;;;9.35;4.72;;;23.50;95.20;;;;;;5006789;28;20029;-63
2023/08/23 09:24:50;;;;;;;9.75;4.90;;;23.60;95.20;;;;;;4994632;28;20035;-59
2023/08/23 09:27:16;;;;;;;7.25;4.35;;;23.70;94.50;;;;;;5010088;28;20025;-62
2023/08/23 09:29:43;;;;;;;7.45;4.80;;;23.70;94.70;;;;;;5004468;28;20551;-58
2023/08/23 09:32:09;;;;;;;6.80;4.95;;;23.70;94.50;;;;;;5016783;28;20029;-59
2023/08/23 09:34:34;;;;;;;8.25;4.43;;;23.70;95.00;;;;;;5007944;28;20036;-63
2023/08/23 09:37:09;;;;;;;8.20;4.18;;;23.90;94.40;;;;;;5019102;28;20082;-61
2023/08/23 09:39:35;;;;;;;6.22;4.03;;;23.90;94.10;;;;;;5010155;28;20032;-59
2023/08/23 09:42:06;;;;;;;11.13;3.40;;;23.70;93.90;;;;;;5013564;28;20181;-63
2023/08/23 09:44:40;;;;;;;14.77;4.10;;;23.70;94.20;;;;;;5007573;28;20164;-58
2023/08/23 09:47:12;;;;;;;10.20;5.00;;;24.00;94.20;;;;;;5007387;28;20042;-60
2023/08/23 09:49:41;;;;;;;8.50;4.78;;;24.30;93.80;;;;;;5007901;28;20065;-62
2023/08/23 09:52:09;;;;;;;9.00;3.30;;;24.30;93.60;;;;;;5004479;28;20022;-62
2023/08/23 09:54:58;;;;;;;10.30;4.65;;;24.50;93.70;;;;;;5012535;28;20369;-61
2023/08/23 09:57:25;;;;;;;9.88;4.80;;;24.50;92.70;;;;;;5018410;28;20030;-59
2023/08/23 09:59:51;;;;;;;14.68;4.95;;;24.40;92.70;;;;;;5014896;28;20405;-57
2023/08/23 10:02:18;;;;;;;11.20;3.42;;;24.50;92.80;;;;;;5006020;28;20034;-61
2023/08/23 10:04:44;;;;;;;8.95;3.97;;;24.50;92.80;;;;;;5004914;28;20392;-64
2023/08/23 10:07:13;;;;;;;6.53;4.95;;;24.80;92.90;;;;;;5014390;28;20034;-61
2023/08/23 10:09:39;;;;;;;9.63;4.15;;;24.90;91.90;;;;;;5019716;28;20029;-61
2023/08/23 10:12:07;;;;;;;13.93;4.47;;;24.70;92.20;;;;;;5006550;28;20144;-63
2023/08/23 10:14:36;;;;;;;10.48;4.95;;;24.70;92.00;;;;;;5011777;28;20500;-61
2023/08/23 10:17:04;;;;;;;8.63;4.38;;;24.50;91.90;;;;;;5003182;28;20026;-59
2023/08/23 10:19:30;;;;;;;13.73;5.47;;;24.30;91.90;;;;;;5013898;28;20446;-58
2023/08/23 10:21:57;;;;;;;6.28;4.13;;;24.10;92.10;;;;;;5023314;28;20029;-61
2023/08/23 10:24:29;;;;;;;8.57;4.15;;;23.80;92.50;;;;;;5012200;28;20041;-59
2023/08/23 10:26:55;;;;;;;7.20;3.97;;;23.70;92.50;;;;;;5001635;28;20091;-57
2023/08/23 10:29:27;;;;;;;5.40;3.75;;;23.60;92.70;;;;;;5021986;28;20033;-58
2023/08/23 10:31:54;;;;;;;8.65;3.60;;;23.60;92.80;;;;;;5009160;28;20408;-60
2023/08/23 10:34:27;;;;;;;9.98;3.83;;;23.70;92.80;;;;;;5007848;28;20083;-62
2023/08/23 10:36:54;;;;;;;8.38;3.83;;;23.80;92.40;;;;;;5005802;28;20025;-63
2023/08/23 10:39:26;;;;;;;7.75;4.13;;;23.80;92.60;;;;;;5002167;28;20402;-60
2023/08/23 10:41:55;;;;;;;3.83;3.03;;;23.80;92.30;;;;;;5008370;28;20030;-62
2023/08/23 10:44:21;;;;;;;5.78;2.70;;;23.90;92.10;;;;;;5006454;28;20041;-62
2023/08/23 10:46:49;;;;;;;4.40;2.83;;;24.10;92.00;;;;;;5010161;28;20072;-62
2023/08/23 10:49:19;;;;;;;5.65;2.45;;;24.10;91.30;;;;;;5002600;28;20496;-61
2023/08/23 10:51:48;;;;;;;6.78;2.67;;;24.30;91.50;;;;;;5003946;28;20109;-61
2023/08/23 10:54:14;;;;;;;4.07;3.20;;;24.70;91.40;;;;;;5007080;28;20079;-62
2023/08/23 10:56:40;;;;;;;5.97;2.03;;;24.80;89.10;;;;;;5003081;28;20091;-63
2023/08/23 10:59:09;;;;;;;3.28;2.00;;;24.80;89.00;;;;;;5019048;28;20108;-62
2023/08/23 11:01:35;;;;;;;4.18;2.33;;;25.00;89.10;;;;;;5016626;28;20022;-57
2023/08/23 11:04:05;;;;;;;5.82;2.05;;;25.10;88.30;;;;;;5010281;28;20045;-60
2023/08/23 11:06:31;;;;;;;5.25;2.38;;;25.30;89.10;;;;;;5012415;28;20034;-61
2023/08/23 11:08:58;;;;;;;8.45;2.90;;;25.50;88.50;;;;;;5006339;28;20038;-59
2023/08/23 11:11:30;;;;;;;6.35;2.78;;;25.70;87.90;;;;;;5011058;28;20109;-58
2023/08/23 11:13:56;;;;;;;6.13;2.22;;;25.70;87.20;;;;;;5008286;28;20071;-59
2023/08/23 11:16:23;;;;;;;6.22;2.55;;;25.90;87.50;;;;;;5014546;28;20397;-59
2023/08/23 11:18:49;;;;;;;6.38;2.65;;;26.10;86.20;;;;;;5012163;28;20025;-59
2023/08/23 11:21:15;;;;;;;3.83;2.25;;;26.10;85.90;;;;;;5009992;28;20057;-62
2023/08/23 11:23:41;;;;;;;5.75;2.53;;;26.10;86.10;;;;;;5008922;28;20022;-61
2023/08/23 11:26:07;;;;;;;3.97;2.22;;;26.30;84.90;;;;;;5009098;28;20030;-62
2023/08/23 11:28:33;;;;;;;10.27;2.38;;;26.30;84.60;;;;;;5018800;28;20030;-62
2023/08/23 11:30:59;;;;;;;4.15;1.77;;;26.20;84.50;;;;;;5008380;28;20044;-59
2023/08/23 11:33:25;;;;;;;3.88;1.85;;;26.30;84.80;;;;;;5005468;28;20022;-58
2023/08/23 11:35:51;;;;;;;2.92;1.63;;;26.50;84.40;;;;;;5009804;28;20022;-59
2023/08/23 11:38:17;;;;;;;10.57;2.45;;;26.70;84.00;;;;;;5013254;28;20698;-63
2023/08/23 11:40:45;;;;;;;5.22;2.05;;;26.60;82.60;;;;;;5002004;28;20034;-63
2023/08/23 11:43:14;;;;;;;8.63;2.40;;;26.50;82.80;;;;;;5006680;28;20176;-61
2023/08/23 11:45:41;;;;;;;4.35;2.17;;;26.40;83.40;;;;;;5015863;28;20101;-58
2023/08/23 11:48:09;;;;;;;4.38;2.00;;;26.50;83.10;;;;;;5008455;28;20501;-62
2023/08/23 11:50:35;;;;;;;6.25;1.67;;;26.60;82.80;;;;;;5016363;28;20044;-62
2023/08/23 11:53:05;;;;;;;8.65;2.65;;;26.70;81.70;;;;;;5006942;28;20026;-57
2023/08/23 11:55:33;;;;;;;3.08;2.40;;;26.90;80.60;;;;;;5011254;28;20029;-60
2023/08/23 11:57:59;;;;;;;2.75;2.20;;;26.90;81.70;;;;;;5015262;28;20027;-62
2023/08/23 12:00:24;;;;;;;3.22;2.00;;;26.60;81.20;;;;;;5008617;28;20040;-58
2023/08/23 12:02:50;;;;;;;2.88;1.70;;;26.30;81.60;;;;;;5010074;28;20034;-62
2023/08/23 12:05:17;;;;;;;4.85;2.28;;;26.00;82.30;;;;;;5015948;28;20127;-62
2023/08/23 12:07:43;;;;;;;4.15;2.05;;;25.80;82.20;;;;;;5017393;28;20025;-61
2023/08/23 12:10:09;;;;;;;5.65;1.92;;;25.70;82.80;;;;;;5007408;28;20030;-58
2023/08/23 12:12:38;;;;;;;4.07;1.63;;;25.80;83.20;;;;;;5008285;28;20096;-63
2023/08/23 12:15:05;;;;;;;4.97;1.70;;;26.00;82.70;;;;;;5003836;28;20520;-60
2023/08/23 12:17:30;;;;;;;6.90;2.38;;;26.10;82.30;;;;;;5005949;28;20092;-61
2023/08/23 12:19:56;;;;;;;4.22;1.77;;;26.20;81.60;;;;;;5016306;28;20030;-60
2023/08/23 12:22:22;;;;;;;6.95;2.17;;;26.10;82.30;;;;;;5010391;28;20044;-61
2023/08/23 12:24:47;;;;;;;14.07;3.00;;;26.30;82.00;;;;;;5015836;28;20464;-62
2023/08/23 12:27:13;;;;;;;8.75;1.80;;;26.30;82.40;;;;;;5005851;28;20073;-62
2023/08/23 12:29:41;;;;;;;3.25;1.23;;;26.50;82.40;;;;;;5013034;28;20112;-61
2023/08/23 12:32:09;;;;;;;2.58;1.08;;;26.80;80.40;;;;;;5006447;28;20351;-58
2023/08/23 12:34:35;;;;;;;2.00;0.60;;;26.90;79.50;;;;;;5008168;28;20022;-60
2023/08/23 12:37:01;;;;;;;2.70;0.90;;;26.80;76.10;;;;;;4995520;28;20027;-61
2023/08/23 12:39:27;;;;;;;2.55;1.23;;;26.70;78.00;;;;;;5008549;28;20026;-62